Le Moyen, Louisiana
Current Conditions -  °F | °C
As of 1:55 PM on Monday 22 Dec 2014 (Local Time) from KOPL Reporting Station
Broken Clouds Broken Clouds  
Wind Chill: 71°   Ceiling: 2500
Heat Index: 71°   Visibility: 10mi
Dew Point: 63°   Wind: 8mph
Humidity: 75%   Direction: 240°WSW
Pressure: 29.67"   Gusts: NA
Location:  30.8264°N, 92.0178°W
Report Text: KOPL 221955Z AUTO 24007KT 10SM BKN025 BKN033 22/17 A2967 RMK AO2 T02160171
Loading
Personal Weather Stations






























Interactive Weather Map New forecast layout! Learn more

10-Day Weather Forecast

Advertisements
Track Severe Weather on mobile